Time;durP1;ratioP1;P1;durP2;ratioP2;P2;SDS_P1;SDS_P2;PMS_P1;PMS_P2;Temp;Humidity;BMP_temperature;BMP_pressure;BME280_temperature;BME280_humidity;BME280_pressure;Samples;Min_cycle;Max_cycle;Signal;HPM_P1;HPM_P2
2021/06/14 00:04:50;;;;;;;4.85;3.40;;;22.50;55.20;;;;;;10414310;28;20481;-52
2021/06/14 00:09:51;;;;;;;5.35;3.40;;;22.50;55.20;;;;;;10413866;28;20030;-54
2021/06/14 00:14:53;;;;;;;4.13;2.90;;;22.50;55.20;;;;;;10414218;28;20048;-55
2021/06/14 00:19:54;;;;;;;3.90;2.70;;;22.50;55.20;;;;;;10413926;28;20037;-55
2021/06/14 00:24:54;;;;;;;4.15;3.05;;;22.50;55.10;;;;;;10413847;28;20179;-55
2021/06/14 00:29:55;;;;;;;5.07;3.10;;;22.50;55.00;;;;;;10416730;28;20537;-54
2021/06/14 00:34:56;;;;;;;4.60;2.88;;;22.50;55.00;;;;;;10421666;28;20105;-55
2021/06/14 00:39:56;;;;;;;3.53;2.72;;;22.50;55.00;;;;;;10421792;28;20385;-55
2021/06/14 00:44:57;;;;;;;5.15;3.45;;;22.50;55.00;;;;;;10430644;28;20049;-55
2021/06/14 00:49:58;;;;;;;6.13;3.03;;;22.40;55.00;;;;;;10421221;28;20473;-55
2021/06/14 00:54:59;;;;;;;5.03;3.58;;;22.40;54.90;;;;;;10421002;28;20025;-54
2021/06/14 01:00:00;;;;;;;3.70;3.20;;;22.40;55.00;;;;;;10419535;28;20120;-53
2021/06/14 01:05:03;;;;;;;4.00;3.13;;;22.40;54.90;;;;;;10421026;28;20122;-54
2021/06/14 01:10:06;;;;;;;4.47;2.97;;;22.40;54.80;;;;;;10414966;28;20467;-55
2021/06/14 01:15:16;;;;;;;4.32;3.10;;;22.40;54.80;;;;;;10413097;28;20030;-55
2021/06/14 01:20:42;;;;;;;5.78;3.42;;;22.40;54.80;;;;;;10418862;28;20036;-55
2021/06/14 01:25:54;;;;;;;5.82;3.13;;;22.40;54.80;;;;;;10420199;28;20045;-54
2021/06/14 01:30:56;;;;;;;4.50;3.08;;;22.40;54.80;;;;;;10419238;28;20044;-54
2021/06/14 01:36:07;;;;;;;4.10;3.40;;;22.40;54.80;;;;;;10418423;28;20471;-53
2021/06/14 01:41:10;;;;;;;4.00;3.15;;;22.40;54.60;;;;;;10420343;28;20033;-55
2021/06/14 01:46:20;;;;;;;4.30;3.05;;;22.40;54.60;;;;;;10419158;28;20095;-53
2021/06/14 01:51:31;;;;;;;5.60;3.65;;;22.30;55.20;;;;;;10418923;28;20042;-55
2021/06/14 01:56:42;;;;;;;4.50;3.35;;;22.30;54.50;;;;;;10400700;28;20057;-55
2021/06/14 02:01:46;;;;;;;4.68;2.85;;;22.30;54.50;;;;;;10417525;28;20086;-55
2021/06/14 02:06:50;;;;;;;3.80;2.80;;;22.30;54.50;;;;;;10417166;28;20025;-55
2021/06/14 02:11:57;;;;;;;5.20;2.97;;;22.30;54.40;;;;;;10404526;28;20090;-54
2021/06/14 02:17:03;;;;;;;4.32;2.83;;;22.30;54.40;;;;;;10416972;28;20037;-55
2021/06/14 02:22:04;;;;;;;5.07;3.45;;;22.30;54.40;;;;;;10416637;28;20038;-55
2021/06/14 02:27:08;;;;;;;4.38;2.75;;;22.30;54.30;;;;;;10417642;28;20044;-55
2021/06/14 02:32:09;;;;;;;5.35;3.10;;;22.30;54.40;;;;;;10417028;28;20033;-55
2021/06/14 02:37:15;;;;;;;5.25;3.28;;;22.20;54.20;;;;;;10417312;28;20022;-55
2021/06/14 02:42:17;;;;;;;4.93;3.63;;;22.20;54.20;;;;;;10426483;28;20037;-55
2021/06/14 02:47:19;;;;;;;5.22;3.42;;;22.30;54.20;;;;;;10416667;28;20124;-55
2021/06/14 02:52:20;;;;;;;5.05;3.50;;;22.30;54.10;;;;;;10416147;28;20049;-54
2021/06/14 02:57:23;;;;;;;4.53;3.08;;;22.20;54.20;;;;;;10416028;28;20421;-55
2021/06/14 03:02:25;;;;;;;4.63;2.92;;;22.20;54.20;;;;;;10415522;28;20037;-55
2021/06/14 03:07:26;;;;;;;5.25;3.28;;;22.20;54.10;;;;;;10413815;28;20138;-54
2021/06/14 03:12:28;;;;;;;3.45;2.70;;;22.20;54.10;;;;;;10411587;28;20042;-54
2021/06/14 03:17:29;;;;;;;4.43;2.97;;;22.20;54.00;;;;;;10413958;28;20478;-55
2021/06/14 03:22:29;;;;;;;4.05;2.97;;;22.20;54.10;;;;;;10415247;28;20449;-54
2021/06/14 03:27:31;;;;;;;4.75;3.42;;;22.20;54.00;;;;;;10414135;28;20037;-55
2021/06/14 03:32:33;;;;;;;5.22;2.92;;;22.10;53.90;;;;;;10413566;28;20030;-55
2021/06/14 03:37:35;;;;;;;5.28;3.83;;;22.10;53.80;;;;;;10414191;28;20535;-55
2021/06/14 03:42:36;;;;;;;5.63;3.45;;;22.10;53.80;;;;;;10414116;28;20025;-53
2021/06/14 03:47:38;;;;;;;5.10;3.17;;;22.10;53.80;;;;;;10413415;28;20041;-55
2021/06/14 03:52:40;;;;;;;4.75;3.05;;;22.10;53.70;;;;;;10413573;28;20072;-53
2021/06/14 03:57:41;;;;;;;5.05;3.47;;;22.10;53.80;;;;;;10413722;28;20104;-53
2021/06/14 04:02:43;;;;;;;4.75;2.92;;;22.10;53.80;;;;;;10413002;28;20034;-55
2021/06/14 04:07:44;;;;;;;5.25;3.40;;;22.10;53.90;;;;;;10413225;28;20363;-54
2021/06/14 04:12:45;;;;;;;5.30;3.60;;;22.10;54.00;;;;;;10411764;28;20071;-55
2021/06/14 04:17:45;;;;;;;4.53;3.13;;;22.10;53.90;;;;;;10420360;28;20028;-55
2021/06/14 04:22:46;;;;;;;4.70;3.42;;;22.10;53.90;;;;;;10411907;28;20034;-53
2021/06/14 04:27:47;;;;;;;5.35;3.28;;;22.10;53.90;;;;;;10412483;28;20026;-55
2021/06/14 04:32:49;;;;;;;4.63;3.17;;;22.10;53.90;;;;;;10413190;28;20508;-55
2021/06/14 04:37:50;;;;;;;7.57;3.50;;;22.10;54.20;;;;;;10410045;28;20087;-55
2021/06/14 04:42:51;;;;;;;4.78;3.33;;;22.10;55.10;;;;;;10413382;28;20351;-57
2021/06/14 04:47:51;;;;;;;4.47;3.17;;;22.10;54.80;;;;;;10412399;28;20045;-57
2021/06/14 04:52:52;;;;;;;5.15;3.33;;;22.10;54.60;;;;;;10411496;28;20030;-57
2021/06/14 04:57:53;;;;;;;4.15;3.10;;;22.10;55.20;;;;;;10404958;28;20108;-56
2021/06/14 05:02:53;;;;;;;6.55;3.60;;;22.10;54.80;;;;;;10415958;28;20107;-56
2021/06/14 05:07:54;;;;;;;5.45;3.78;;;22.10;54.70;;;;;;10205473;28;20511;-56
2021/06/14 05:12:55;;;;;;;5.65;3.33;;;22.00;54.60;;;;;;10409255;28;20418;-56
2021/06/14 05:17:56;;;;;;;5.68;2.95;;;22.00;54.40;;;;;;10419090;28;20071;-57
2021/06/14 05:22:57;;;;;;;6.03;3.40;;;22.00;54.50;;;;;;10419619;28;20099;-50
2021/06/14 05:27:58;;;;;;;6.25;3.58;;;22.00;55.50;;;;;;10419111;28;20028;-54
2021/06/14 05:32:59;;;;;;;7.65;3.22;;;22.10;55.90;;;;;;10418645;28;20447;-52
2021/06/14 05:38:00;;;;;;;5.50;3.30;;;22.10;56.70;;;;;;10418115;28;20028;-53
2021/06/14 05:43:00;;;;;;;9.63;3.03;;;22.10;57.20;;;;;;10417308;28;20072;-57
2021/06/14 05:48:01;;;;;;;10.73;3.45;;;22.10;57.00;;;;;;10418495;28;20065;-53
2021/06/14 05:53:02;;;;;;;7.72;3.05;;;22.20;57.60;;;;;;10418718;28;20053;-56
2021/06/14 05:58:04;;;;;;;9.07;3.65;;;22.20;57.50;;;;;;10416631;28;20032;-58
2021/06/14 06:03:04;;;;;;;7.93;3.33;;;22.20;56.90;;;;;;10406660;28;20036;-57
2021/06/14 06:08:05;;;;;;;10.63;3.30;;;22.20;56.90;;;;;;10410217;28;20503;-57
2021/06/14 06:13:06;;;;;;;14.65;4.40;;;22.20;56.80;;;;;;10401604;28;20037;-57
2021/06/14 06:18:07;;;;;;;11.50;4.22;;;22.10;56.90;;;;;;10407433;28;20029;-58
2021/06/14 06:23:07;;;;;;;9.93;4.32;;;22.20;57.20;;;;;;10409438;28;20052;-58
2021/06/14 06:28:08;;;;;;;10.15;3.78;;;22.10;57.20;;;;;;10408857;28;20052;-58
2021/06/14 06:33:09;;;;;;;10.25;4.50;;;22.10;57.30;;;;;;10409580;28;20083;-58
2021/06/14 06:38:10;;;;;;;7.53;3.85;;;22.10;57.10;;;;;;10409790;28;20099;-58
2021/06/14 06:43:10;;;;;;;6.70;3.75;;;22.10;57.00;;;;;;10419995;28;20091;-58
2021/06/14 06:48:11;;;;;;;7.15;4.03;;;22.10;56.80;;;;;;10406210;28;20049;-56
2021/06/14 06:53:12;;;;;;;10.95;4.68;;;22.10;56.80;;;;;;10408483;28;20052;-58
2021/06/14 06:58:13;;;;;;;9.77;3.95;;;22.10;56.40;;;;;;10408780;28;20444;-61
2021/06/14 07:03:16;;;;;;;6.32;3.40;;;22.10;56.30;;;;;;10407154;28;20758;-57
2021/06/14 07:08:17;;;;;;;7.00;3.72;;;22.10;56.40;;;;;;10405983;28;20574;-57
2021/06/14 07:13:18;;;;;;;7.25;4.25;;;22.10;56.50;;;;;;10407424;28;20033;-57
2021/06/14 07:18:18;;;;;;;8.45;3.80;;;22.20;56.60;;;;;;10408058;28;20036;-57
2021/06/14 07:23:19;;;;;;;5.88;3.70;;;22.20;56.50;;;;;;10408347;28;20065;-58
2021/06/14 07:28:20;;;;;;;6.75;3.67;;;22.20;56.50;;;;;;10408393;28;20029;-58
2021/06/14 07:33:21;;;;;;;4.57;3.03;;;22.20;56.50;;;;;;10408780;28;20041;-58
2021/06/14 07:38:23;;;;;;;7.22;3.80;;;22.20;56.40;;;;;;10406153;28;20122;-58
2021/06/14 07:43:23;;;;;;;8.98;4.07;;;22.20;56.40;;;;;;10411586;28;20504;-58
2021/06/14 07:48:24;;;;;;;5.70;3.35;;;22.20;56.30;;;;;;10406349;28;20063;-58
2021/06/14 07:53:26;;;;;;;6.03;3.47;;;22.20;56.40;;;;;;10406072;28;20699;-58
2021/06/14 07:58:27;;;;;;;6.03;3.33;;;22.20;56.40;;;;;;10411511;28;20033;-58
2021/06/14 08:03:29;;;;;;;8.55;3.38;;;22.20;56.40;;;;;;10412957;28;20087;-57
2021/06/14 08:08:30;;;;;;;7.05;3.53;;;22.30;56.30;;;;;;10413383;28;20113;-54
2021/06/14 08:13:31;;;;;;;8.38;3.58;;;22.30;56.40;;;;;;10413375;28;20048;-58
2021/06/14 08:19:09;;;;;;;4.22;2.72;;;22.30;56.20;;;;;;10412198;28;20071;-58
2021/06/14 08:29:18;;;;;;;5.72;2.70;;;22.30;56.10;;;;;;10411456;28;20037;-58
2021/06/14 08:34:18;;;;;;;7.18;3.78;;;22.30;56.20;;;;;;10410585;28;20026;-57
2021/06/14 08:39:19;;;;;;;4.53;3.28;;;22.30;56.10;;;;;;10412541;28;20041;-58
2021/06/14 08:44:20;;;;;;;5.55;2.85;;;22.30;56.00;;;;;;10416006;28;20049;-57
2021/06/14 08:49:21;;;;;;;4.80;3.28;;;22.30;56.20;;;;;;10413753;28;20037;-57
2021/06/14 08:54:22;;;;;;;5.80;3.80;;;22.30;56.00;;;;;;10421018;28;20026;-58
2021/06/14 08:59:23;;;;;;;7.13;3.40;;;22.30;55.80;;;;;;10421245;28;20581;-56
2021/06/14 09:04:23;;;;;;;6.70;3.90;;;22.30;55.80;;;;;;10420892;28;20120;-57
2021/06/14 09:09:29;;;;;;;6.82;3.22;;;22.30;56.00;;;;;;10420176;28;20030;-57
2021/06/14 09:14:36;;;;;;;5.88;3.15;;;22.30;56.00;;;;;;10420171;28;20484;-57
2021/06/14 09:19:48;;;;;;;4.97;3.30;;;22.30;56.00;;;;;;10420291;28;20470;-58
2021/06/14 09:25:10;;;;;;;5.47;3.30;;;22.40;56.20;;;;;;10419779;28;20037;-58
2021/06/14 09:30:26;;;;;;;5.93;4.30;;;22.40;56.20;;;;;;10419827;28;20108;-57
2021/06/14 09:35:35;;;;;;;4.68;3.38;;;22.40;56.10;;;;;;10419371;28;20029;-56
2021/06/14 09:40:42;;;;;;;4.63;3.40;;;22.40;56.00;;;;;;10419351;28;20033;-57
2021/06/14 09:45:44;;;;;;;6.85;4.00;;;22.40;56.20;;;;;;10423359;28;20071;-57
2021/06/14 09:50:47;;;;;;;4.90;3.15;;;22.40;55.90;;;;;;10418737;28;20113;-57
2021/06/14 09:55:51;;;;;;;4.03;3.17;;;22.40;56.20;;;;;;10418803;28;20026;-57
2021/06/14 10:01:02;;;;;;;5.28;3.13;;;22.40;56.30;;;;;;10417936;28;20029;-58
2021/06/14 10:06:02;;;;;;;5.57;3.40;;;22.40;56.40;;;;;;10418442;28;20148;-57
2021/06/14 10:11:12;;;;;;;4.82;3.42;;;22.40;56.10;;;;;;10418236;28;20055;-57
2021/06/14 10:16:23;;;;;;;7.60;4.25;;;22.40;56.10;;;;;;10418066;28;20026;-57
2021/06/14 10:21:33;;;;;;;5.38;3.95;;;22.40;55.90;;;;;;10415977;28;20037;-57
2021/06/14 10:26:37;;;;;;;5.25;3.63;;;22.40;56.10;;;;;;10417574;28;20038;-58
2021/06/14 10:31:41;;;;;;;5.85;3.83;;;22.40;56.00;;;;;;10417682;28;20394;-58
2021/06/14 10:36:53;;;;;;;4.93;3.13;;;22.40;56.10;;;;;;10417063;28;20030;-58
2021/06/14 10:41:54;;;;;;;5.40;3.10;;;22.40;55.90;;;;;;10421140;28;20083;-59
2021/06/14 10:46:55;;;;;;;5.20;3.50;;;22.40;56.10;;;;;;10416899;28;20046;-58
2021/06/14 10:52:04;;;;;;;6.57;3.35;;;22.50;56.00;;;;;;10416296;28;20033;-56
2021/06/14 10:57:12;;;;;;;8.20;3.75;;;22.50;56.10;;;;;;10416141;28;20040;-57
2021/06/14 11:02:18;;;;;;;7.95;4.32;;;22.50;56.10;;;;;;10403983;28;20083;-56
2021/06/14 11:07:28;;;;;;;9.07;3.70;;;22.50;56.30;;;;;;10415905;28;20450;-56
2021/06/14 11:12:29;;;;;;;6.80;3.40;;;22.50;56.30;;;;;;10414345;28;20076;-57
2021/06/14 11:17:37;;;;;;;7.57;4.10;;;22.50;56.40;;;;;;10415498;28;20045;-57
2021/06/14 11:22:39;;;;;;;6.22;3.42;;;22.50;56.30;;;;;;10415392;28;20033;-57
2021/06/14 11:27:40;;;;;;;9.15;4.80;;;22.50;56.80;;;;;;10415085;28;20029;-58
2021/06/14 11:32:41;;;;;;;12.65;5.05;;;22.50;57.00;;;;;;10414053;28;20033;-57
2021/06/14 11:37:47;;;;;;;13.10;4.65;;;22.50;57.50;;;;;;10414365;28;20045;-58
2021/06/14 11:42:53;;;;;;;7.10;3.28;;;22.50;57.50;;;;;;10412396;28;20044;-57
2021/06/14 11:47:56;;;;;;;18.13;4.68;;;22.50;57.90;;;;;;10413945;28;20488;-57
2021/06/14 11:53:06;;;;;;;14.73;3.38;;;22.60;58.20;;;;;;10428487;28;20437;-58
2021/06/14 11:58:10;;;;;;;12.60;4.25;;;22.60;58.10;;;;;;10414420;28;20056;-57
2021/06/14 12:03:25;;;;;;;8.20;4.13;;;22.50;57.80;;;;;;10412646;28;20038;-57
2021/06/14 12:08:28;;;;;;;12.05;4.15;;;22.50;57.10;;;;;;10413605;28;20033;-57
2021/06/14 12:13:29;;;;;;;7.32;4.00;;;22.50;56.90;;;;;;10414169;28;20389;-57
2021/06/14 12:18:30;;;;;;;8.05;4.32;;;22.50;57.00;;;;;;10413699;28;20065;-58
2021/06/14 12:23:42;;;;;;;9.20;4.32;;;22.50;57.20;;;;;;10413569;28;20037;-58
2021/06/14 12:28:43;;;;;;;6.60;4.30;;;22.50;57.20;;;;;;10421486;28;20110;-58
2021/06/14 12:33:45;;;;;;;5.75;3.55;;;22.50;57.00;;;;;;10421954;28;20053;-58
2021/06/14 12:38:52;;;;;;;7.30;4.00;;;22.50;56.80;;;;;;10421539;28;20056;-58
2021/06/14 12:43:53;;;;;;;5.70;3.75;;;22.60;56.90;;;;;;10426896;28;20476;-57
2021/06/14 12:48:54;;;;;;;8.63;4.03;;;22.50;57.20;;;;;;10420913;28;20041;-58
2021/06/14 12:53:56;;;;;;;4.70;3.28;;;22.60;57.30;;;;;;10419818;28;20450;-58
2021/06/14 12:58:57;;;;;;;6.53;3.50;;;22.60;56.90;;;;;;10419677;28;20025;-58
2021/06/14 13:03:58;;;;;;;9.93;4.47;;;22.60;57.10;;;;;;10406089;28;20033;-57
2021/06/14 13:09:00;;;;;;;5.55;3.70;;;22.60;57.20;;;;;;10420580;28;20038;-57
2021/06/14 13:14:01;;;;;;;6.65;4.63;;;22.60;57.30;;;;;;10420237;28;20148;-57
2021/06/14 13:19:02;;;;;;;5.28;4.35;;;22.60;57.30;;;;;;10420224;28;20113;-57
2021/06/14 13:24:11;;;;;;;6.20;3.10;;;22.60;57.30;;;;;;10419971;28;20068;-57
2021/06/14 13:29:25;;;;;;;6.85;3.70;;;22.60;57.30;;;;;;10419801;28;20029;-58
2021/06/14 13:34:28;;;;;;;4.43;3.17;;;22.60;57.30;;;;;;10419642;28;20030;-57
2021/06/14 13:39:35;;;;;;;5.35;3.90;;;22.60;57.30;;;;;;10418199;28;20037;-58
2021/06/14 13:44:48;;;;;;;4.82;3.28;;;22.60;57.30;;;;;;10422040;28;20049;-56
2021/06/14 13:49:50;;;;;;;7.32;3.13;;;22.60;57.20;;;;;;10417945;28;20477;-57
2021/06/14 13:54:59;;;;;;;6.20;3.83;;;22.60;57.20;;;;;;10419277;28;20111;-57
2021/06/14 14:00:12;;;;;;;4.75;3.47;;;22.60;57.10;;;;;;10418945;28;20374;-57
2021/06/14 14:05:30;;;;;;;5.57;3.45;;;22.60;56.90;;;;;;10418589;28;20112;-57
2021/06/14 14:10:32;;;;;;;5.28;3.53;;;22.60;57.00;;;;;;10418133;28;20366;-57
2021/06/14 14:15:33;;;;;;;7.10;3.25;;;22.60;57.00;;;;;;10416775;28;20052;-58
2021/06/14 14:20:34;;;;;;;6.32;3.15;;;22.60;56.80;;;;;;10417920;28;20040;-57
2021/06/14 14:25:34;;;;;;;6.03;3.58;;;22.60;56.70;;;;;;10417053;28;20443;-56
2021/06/14 14:30:49;;;;;;;4.38;2.78;;;22.60;56.60;;;;;;10432389;28;20104;-56
2021/06/14 14:35:49;;;;;;;4.32;3.38;;;22.60;56.70;;;;;;10413284;28;20489;-56
2021/06/14 14:40:50;;;;;;;4.05;3.28;;;22.70;56.20;;;;;;10416989;28;20033;-56
2021/06/14 14:45:52;;;;;;;5.00;3.45;;;22.60;56.60;;;;;;10420062;28;20494;-58
2021/06/14 14:50:55;;;;;;;5.28;3.53;;;22.60;56.60;;;;;;10431189;28;20061;-56
2021/06/14 14:55:56;;;;;;;5.32;3.70;;;22.70;56.60;;;;;;10416449;28;20447;-57
2021/06/14 15:00:56;;;;;;;4.75;3.05;;;22.60;56.50;;;;;;10415408;28;20101;-57
2021/06/14 15:05:57;;;;;;;5.03;3.45;;;22.60;56.50;;;;;;10416190;28;20025;-58
2021/06/14 15:10:58;;;;;;;6.10;3.55;;;22.70;56.80;;;;;;10414458;28;20104;-57
2021/06/14 15:15:59;;;;;;;5.47;2.92;;;22.70;56.80;;;;;;10415645;28;20076;-57
2021/06/14 15:21:01;;;;;;;6.15;3.35;;;22.70;56.60;;;;;;10415951;28;20450;-57
2021/06/14 15:26:02;;;;;;;6.00;3.53;;;22.70;56.60;;;;;;10414670;28;20037;-57
2021/06/14 15:31:04;;;;;;;5.85;3.60;;;22.70;56.60;;;;;;10414639;28;20033;-57
2021/06/14 15:36:06;;;;;;;5.72;3.50;;;22.70;56.30;;;;;;10411177;28;20080;-57
2021/06/14 15:41:07;;;;;;;8.40;4.03;;;22.70;56.30;;;;;;10417528;28;20040;-57
2021/06/14 15:46:09;;;;;;;14.57;3.60;;;22.70;56.00;;;;;;10413556;28;20056;-57
2021/06/14 15:51:10;;;;;;;9.27;3.30;;;22.70;57.00;;;;;;10395962;28;20079;-56
2021/06/14 15:56:11;;;;;;;5.13;3.42;;;22.70;56.90;;;;;;10409935;28;20116;-56
2021/06/14 16:01:12;;;;;;;47.70;19.45;;;22.70;57.00;;;;;;10390499;28;20026;-56
2021/06/14 16:06:13;;;;;;;38.20;15.20;;;22.80;58.90;;;;;;10395289;28;20037;-57
2021/06/14 16:11:13;;;;;;;29.83;14.27;;;22.80;62.10;;;;;;10407750;28;20064;-56
2021/06/14 16:16:14;;;;;;;21.70;8.80;;;22.80;64.10;;;;;;10423495;28;20068;-56
2021/06/14 16:21:15;;;;;;;20.15;8.73;;;22.90;60.70;;;;;;10412875;28;20076;-56
2021/06/14 16:26:16;;;;;;;19.55;8.20;;;22.90;60.90;;;;;;10413785;28;20060;-56
2021/06/14 16:31:17;;;;;;;19.42;9.07;;;22.90;59.80;;;;;;10413962;28;20445;-57
2021/06/14 16:36:19;;;;;;;14.00;8.05;;;22.90;59.90;;;;;;10413713;28;20036;-57
2021/06/14 16:41:19;;;;;;;16.00;7.55;;;22.90;59.60;;;;;;10418542;28;20021;-56
2021/06/14 16:46:20;;;;;;;14.35;7.82;;;22.90;59.10;;;;;;10415751;28;20505;-56
2021/06/14 16:51:21;;;;;;;15.00;7.05;;;22.90;59.00;;;;;;10399887;28;20166;-56
2021/06/14 16:56:21;;;;;;;14.25;7.78;;;22.90;58.70;;;;;;10412099;28;20021;-56
2021/06/14 17:01:24;;;;;;;13.52;7.15;;;22.90;58.50;;;;;;10412412;28;20116;-56
2021/06/14 17:06:26;;;;;;;11.05;6.70;;;22.90;58.50;;;;;;10412730;28;20055;-57
2021/06/14 17:11:27;;;;;;;12.63;6.38;;;22.90;58.30;;;;;;10414526;28;20032;-56
2021/06/14 17:16:27;;;;;;;10.32;5.97;;;22.90;58.20;;;;;;10419810;28;20469;-56
2021/06/14 17:21:28;;;;;;;9.95;5.95;;;22.90;58.20;;;;;;10418748;28;20424;-56
2021/06/14 17:26:29;;;;;;;12.77;6.13;;;22.90;58.20;;;;;;10418124;28;20040;-56
2021/06/14 17:31:30;;;;;;;11.48;5.82;;;23.00;58.60;;;;;;10419892;28;20037;-56
2021/06/14 17:36:31;;;;;;;16.83;6.85;;;23.00;58.70;;;;;;10419278;28;20033;-56
2021/06/14 17:41:32;;;;;;;16.50;6.53;;;23.00;58.70;;;;;;10411964;28;20037;-55
2021/06/14 17:46:33;;;;;;;9.95;5.93;;;23.00;58.70;;;;;;10420386;28;20140;-55
2021/06/14 17:51:34;;;;;;;11.52;6.07;;;23.00;58.60;;;;;;10418497;28;20504;-55
2021/06/14 17:56:37;;;;;;;16.92;6.78;;;23.00;58.20;;;;;;10410708;28;20017;-55
2021/06/14 18:01:40;;;;;;;10.18;5.38;;;23.00;58.40;;;;;;10430230;28;20113;-55
2021/06/14 18:06:41;;;;;;;8.75;5.18;;;23.00;58.10;;;;;;10414866;28;20477;-56
2021/06/14 18:11:42;;;;;;;9.23;5.47;;;23.00;57.90;;;;;;10416597;28;20041;-56
2021/06/14 18:16:43;;;;;;;8.27;5.80;;;23.00;57.90;;;;;;10417277;28;20030;-56
2021/06/14 18:21:43;;;;;;;9.13;4.80;;;23.00;57.90;;;;;;10417718;28;20416;-55
2021/06/14 18:26:44;;;;;;;9.90;5.18;;;23.00;57.80;;;;;;10417415;28;20111;-55
2021/06/14 18:31:50;;;;;;;8.95;5.43;;;23.00;57.60;;;;;;10417204;28;20112;-55
2021/06/14 18:36:53;;;;;;;8.43;5.05;;;23.00;57.50;;;;;;10416454;28;20473;-55
2021/06/14 18:41:54;;;;;;;7.20;4.47;;;23.00;57.40;;;;;;10414535;28;20030;-55
2021/06/14 18:46:55;;;;;;;9.05;4.88;;;23.00;57.30;;;;;;10415260;28;20041;-55
2021/06/14 18:51:56;;;;;;;7.55;5.35;;;23.00;57.50;;;;;;10411827;28;20034;-55
2021/06/14 18:56:57;;;;;;;9.65;5.15;;;23.00;57.60;;;;;;10416310;28;20597;-55
2021/06/14 19:01:57;;;;;;;9.82;6.32;;;23.10;59.80;;;;;;10414835;28;20036;-55
2021/06/14 19:06:58;;;;;;;6.00;4.93;;;23.00;58.10;;;;;;10408482;28;20048;-55
2021/06/14 19:11:59;;;;;;;11.95;5.82;;;23.00;58.00;;;;;;10401195;28;20116;-56
2021/06/14 19:17:01;;;;;;;9.02;5.53;;;23.00;58.00;;;;;;10415047;28;20033;-56
2021/06/14 19:22:03;;;;;;;9.68;6.03;;;23.00;58.00;;;;;;10414922;28;20040;-56
2021/06/14 19:27:04;;;;;;;6.95;5.07;;;23.10;58.10;;;;;;10414456;28;20033;-55
2021/06/14 19:32:05;;;;;;;12.52;5.57;;;23.00;58.10;;;;;;10414109;28;20409;-55
2021/06/14 19:37:07;;;;;;;6.53;5.13;;;23.00;58.10;;;;;;10412702;28;20049;-55
2021/06/14 19:42:08;;;;;;;6.72;4.95;;;23.10;58.10;;;;;;10414074;28;20026;-55
2021/06/14 19:47:09;;;;;;;8.00;5.20;;;23.00;58.20;;;;;;10414515;28;20053;-55
2021/06/14 19:52:10;;;;;;;8.45;5.70;;;23.10;58.30;;;;;;10414181;28;20033;-56
2021/06/14 19:57:10;;;;;;;8.18;5.47;;;23.00;58.30;;;;;;10414118;28;20030;-55
2021/06/14 20:02:12;;;;;;;7.28;5.50;;;23.00;58.30;;;;;;10413791;28;20026;-55
2021/06/14 20:07:13;;;;;;;7.25;4.90;;;23.00;58.30;;;;;;10413697;28;20128;-56
2021/06/14 20:12:13;;;;;;;7.00;5.25;;;23.10;58.30;;;;;;10413998;28;20120;-55
2021/06/14 20:17:14;;;;;;;7.70;5.30;;;23.00;58.40;;;;;;10410892;28;20370;-56
2021/06/14 20:22:15;;;;;;;7.95;5.20;;;23.10;58.50;;;;;;10412948;28;20056;-55
2021/06/14 20:27:16;;;;;;;7.25;5.75;;;23.10;58.50;;;;;;10413187;28;20438;-55
2021/06/14 20:32:16;;;;;;;8.98;6.05;;;23.10;58.60;;;;;;10413322;28;20029;-55
2021/06/14 20:37:17;;;;;;;8.55;5.90;;;23.10;58.60;;;;;;10413093;28;20021;-55
2021/06/14 20:42:19;;;;;;;12.13;5.80;;;23.10;58.70;;;;;;10419938;28;20029;-55
2021/06/14 20:47:19;;;;;;;6.80;5.10;;;23.10;58.80;;;;;;10415049;28;20061;-55
2021/06/14 20:52:20;;;;;;;7.43;5.30;;;23.00;58.70;;;;;;10420257;28;20386;-55
2021/06/14 20:57:21;;;;;;;6.88;5.78;;;23.00;58.70;;;;;;10419733;28;20025;-54
2021/06/14 21:02:22;;;;;;;7.43;5.35;;;23.00;58.70;;;;;;10418856;28;20087;-55
2021/06/14 21:07:22;;;;;;;8.50;6.18;;;23.00;58.70;;;;;;10419317;28;20038;-57
2021/06/14 21:12:24;;;;;;;12.02;5.60;;;23.10;58.80;;;;;;10420502;28;20032;-57
2021/06/14 21:17:25;;;;;;;9.52;5.40;;;23.10;58.80;;;;;;10420496;28;20033;-57
2021/06/14 21:22:26;;;;;;;6.57;5.03;;;23.10;58.80;;;;;;10420301;28;20485;-57
2021/06/14 21:27:27;;;;;;;6.15;5.55;;;23.10;58.80;;;;;;10420270;28;20029;-58
2021/06/14 21:32:27;;;;;;;6.57;5.60;;;23.10;58.80;;;;;;10419720;28;20033;-57
2021/06/14 21:37:28;;;;;;;6.93;5.95;;;23.00;58.70;;;;;;10419549;28;20072;-57
2021/06/14 21:42:29;;;;;;;7.50;5.90;;;23.10;58.80;;;;;;10427213;28;20548;-57
2021/06/14 21:47:29;;;;;;;7.00;5.88;;;23.00;58.70;;;;;;10419229;28;20060;-57
2021/06/14 21:52:30;;;;;;;7.65;5.43;;;23.00;58.70;;;;;;10405862;28;20104;-57
2021/06/14 21:57:31;;;;;;;7.50;6.00;;;23.00;58.70;;;;;;10417993;28;20053;-57
2021/06/14 22:02:32;;;;;;;6.95;5.70;;;23.00;58.80;;;;;;10419054;28;20079;-57
2021/06/14 22:07:34;;;;;;;8.43;5.90;;;23.00;58.80;;;;;;10418651;28;20033;-57
2021/06/14 22:12:35;;;;;;;8.35;5.55;;;23.00;58.90;;;;;;10418261;28;20041;-56
2021/06/14 22:17:36;;;;;;;7.55;5.40;;;23.00;59.00;;;;;;10418192;28;20385;-57
2021/06/14 22:22:40;;;;;;;8.55;6.80;;;23.00;59.00;;;;;;10416781;28;20485;-57
2021/06/14 22:27:41;;;;;;;7.43;5.22;;;23.00;59.00;;;;;;10418357;28;20084;-57
2021/06/14 22:32:42;;;;;;;6.90;5.63;;;23.00;59.10;;;;;;10417561;28;20172;-57
2021/06/14 22:37:43;;;;;;;6.55;5.57;;;23.00;59.10;;;;;;10415845;28;20056;-57
2021/06/14 22:42:44;;;;;;;9.27;5.78;;;23.00;59.20;;;;;;10425468;28;20053;-57
2021/06/14 22:47:46;;;;;;;6.05;5.22;;;23.00;59.30;;;;;;10416336;28;20091;-57
2021/06/14 22:52:48;;;;;;;6.55;5.80;;;23.00;59.30;;;;;;10403498;28;20072;-57
2021/06/14 22:57:49;;;;;;;6.88;5.65;;;23.00;59.30;;;;;;10415038;28;20033;-56
2021/06/14 23:02:50;;;;;;;6.28;5.55;;;23.00;59.30;;;;;;10415637;28;20078;-57
2021/06/14 23:07:50;;;;;;;6.80;6.10;;;23.00;59.30;;;;;;10414978;28;20040;-57
2021/06/14 23:12:51;;;;;;;7.88;5.20;;;23.00;59.30;;;;;;10415851;28;20080;-57
2021/06/14 23:17:52;;;;;;;6.90;5.20;;;23.00;59.40;;;;;;10416048;28;20029;-56
2021/06/14 23:22:52;;;;;;;5.78;5.28;;;23.00;59.50;;;;;;10415855;28;20489;-57
2021/06/14 23:27:53;;;;;;;7.15;5.43;;;23.00;59.50;;;;;;10415526;28;20037;-57
2021/06/14 23:32:54;;;;;;;6.40;5.40;;;23.00;59.50;;;;;;10430663;28;20030;-57
2021/06/14 23:37:55;;;;;;;6.70;5.90;;;23.00;59.50;;;;;;10415394;28;20064;-57
2021/06/14 23:42:56;;;;;;;8.40;5.57;;;23.00;59.50;;;;;;10419235;28;20144;-57
2021/06/14 23:47:56;;;;;;;6.07;5.47;;;23.00;59.60;;;;;;10414814;28;20063;-57
2021/06/14 23:52:58;;;;;;;7.55;5.95;;;23.00;59.60;;;;;;10414837;28;20132;-57
2021/06/14 23:57:59;;;;;;;6.75;5.50;;;23.00;59.60;;;;;;10414668;28;20466;-57
